createdAt,value
2019-01-10T00:00:16.199Z,89.5
2019-01-10T00:01:16.256Z,89.5
2019-01-10T00:02:16.515Z,89.4
2019-01-10T00:03:15.785Z,89.3
2019-01-10T00:04:16.059Z,89.8
2019-01-10T00:05:16.326Z,89.4
2019-01-10T00:06:16.598Z,89.5
2019-01-10T00:07:15.875Z,89.7
2019-01-10T00:08:16.139Z,89.8
2019-01-10T00:09:16.398Z,90.0
2019-01-10T00:10:16.696Z,90.0
2019-01-10T00:11:15.731Z,90.2
2019-01-10T00:12:15.991Z,90.0
2019-01-10T00:13:16.254Z,89.9
2019-01-10T00:14:16.521Z,90.1
2019-01-10T00:15:15.796Z,90.3
2019-01-10T00:16:16.063Z,90.5
2019-01-10T00:17:16.340Z,90.5
2019-01-10T00:18:16.598Z,90.2
2019-01-10T00:19:15.858Z,90.3
2019-01-10T00:20:16.139Z,90.7
2019-01-10T00:21:16.164Z,91.0
2019-01-10T00:22:16.427Z,90.6
2019-01-10T00:23:16.693Z,90.5
2019-01-10T00:24:15.972Z,90.7
2019-01-10T00:25:16.255Z,91.0
2019-01-10T00:26:16.528Z,90.5
2019-01-10T00:27:15.796Z,90.5
2019-01-10T00:28:16.058Z,90.7
2019-01-10T00:29:16.342Z,90.8
2019-01-10T00:30:16.927Z,91.2
2019-01-10T00:31:16.661Z,91.2
2019-01-10T00:32:15.929Z,90.2
2019-01-10T00:33:16.195Z,90.3
2019-01-10T00:34:16.449Z,90.5
2019-01-10T00:35:15.711Z,90.6
2019-01-10T00:36:15.977Z,91.0
2019-01-10T00:37:16.259Z,91.0
2019-01-10T00:38:16.513Z,91.0
2019-01-10T00:39:15.775Z,90.8
2019-01-10T00:40:16.097Z,90.7
2019-01-10T00:41:16.086Z,90.8
2019-01-10T00:42:16.351Z,90.8
2019-01-10T00:43:16.617Z,90.8
2019-01-10T00:44:15.880Z,90.9
2019-01-10T00:45:16.144Z,90.8
2019-01-10T00:46:16.423Z,90.8
2019-01-10T00:47:16.684Z,90.8
2019-01-10T00:48:15.940Z,90.7
2019-01-10T00:49:16.200Z,90.8
2019-01-10T00:50:16.474Z,91.0
2019-01-10T00:51:16.522Z,90.9
2019-01-10T00:52:15.785Z,90.4
2019-01-10T00:53:16.044Z,90.9
2019-01-10T00:54:16.309Z,90.4
2019-01-10T00:55:16.566Z,90.7
2019-01-10T00:56:15.836Z,90.1
2019-01-10T00:57:16.100Z,90.5
2019-01-10T00:58:16.367Z,90.3
2019-01-10T00:59:16.624Z,90.4
2019-01-10T01:00:15.977Z,90.3
2019-01-10T01:01:15.974Z,90.5
2019-01-10T01:02:16.248Z,90.7
2019-01-10T01:03:16.511Z,90.3
2019-01-10T01:04:15.768Z,90.2
2019-01-10T01:05:16.032Z,90.2
2019-01-10T01:06:16.293Z,89.8
2019-01-10T01:07:16.543Z,89.9
2019-01-10T01:08:15.800Z,90.5
2019-01-10T01:09:16.061Z,90.2
2019-01-10T01:10:16.433Z,90.2
2019-01-10T01:11:16.381Z,89.9
2019-01-10T01:12:16.730Z,90.0
2019-01-10T01:13:16.019Z,89.9
2019-01-10T01:14:16.282Z,89.8
2019-01-10T01:15:16.547Z,90.0
2019-01-10T01:16:15.810Z,90.3
2019-01-10T01:17:16.073Z,90.5
2019-01-10T01:18:16.338Z,90.1
2019-01-10T01:19:16.597Z,90.0
2019-01-10T01:20:15.863Z,90.2
2019-01-10T01:21:16.170Z,90.5
2019-01-10T01:22:16.441Z,90.1
2019-01-10T01:23:15.722Z,90.2
2019-01-10T01:24:15.997Z,89.9
2019-01-10T01:25:16.262Z,89.8
2019-01-10T01:26:16.521Z,90.0
2019-01-10T01:27:15.774Z,89.9
2019-01-10T01:28:16.039Z,90.4
2019-01-10T01:29:18.640Z,89.9
2019-01-10T01:30:15.930Z,90.2
2019-01-10T01:31:15.976Z,89.8
2019-01-10T01:32:16.251Z,90.2
2019-01-10T01:33:16.511Z,90.0
2019-01-10T01:34:15.794Z,89.9
2019-01-10T01:35:16.164Z,89.9
2019-01-10T01:36:16.440Z,90.3
2019-01-10T01:37:15.717Z,89.9
2019-01-10T01:38:15.990Z,90.2
2019-01-10T01:39:16.250Z,90.2
2019-01-10T01:40:16.519Z,90.2
2019-01-10T01:41:16.566Z,90.3
2019-01-10T01:42:15.832Z,90.2
2019-01-10T01:43:16.101Z,90.4
2019-01-10T01:44:16.373Z,90.1
2019-01-10T01:45:16.636Z,90.2
2019-01-10T01:46:15.890Z,90.2
2019-01-10T01:47:16.181Z,90.1
2019-01-10T01:48:16.453Z,90.1
2019-01-10T01:49:15.711Z,90.0
2019-01-10T01:50:15.982Z,89.9
2019-01-10T01:51:16.037Z,90.1
2019-01-10T01:52:16.309Z,89.9
2019-01-10T01:53:16.581Z,89.9
2019-01-10T01:54:15.850Z,90.2
2019-01-10T01:55:16.111Z,90.0
2019-01-10T01:56:16.389Z,90.0
2019-01-10T01:57:16.666Z,90.0
2019-01-10T01:58:15.927Z,89.7
2019-01-10T01:59:16.197Z,90.1
2019-01-10T02:00:16.466Z,90.6
2019-01-10T02:01:16.511Z,90.4
2019-01-10T02:02:15.769Z,90.1
2019-01-10T02:03:16.043Z,90.2
2019-01-10T02:04:16.312Z,90.5
2019-01-10T02:05:16.597Z,90.4
2019-01-10T02:06:15.868Z,90.4
2019-01-10T02:07:16.129Z,90.2
2019-01-10T02:08:16.412Z,90.0
2019-01-10T02:09:16.679Z,90.6
2019-01-10T02:10:15.953Z,90.3
2019-01-10T02:11:16.001Z,90.0
2019-01-10T02:12:16.255Z,90.2
2019-01-10T02:13:17.153Z,90.5
2019-01-10T02:14:16.428Z,90.4
2019-01-10T02:15:16.695Z,90.6
2019-01-10T02:16:15.954Z,90.6
2019-01-10T02:17:16.215Z,90.8
2019-01-10T02:18:16.474Z,90.6
2019-01-10T02:19:15.734Z,90.4
2019-01-10T02:20:16.018Z,90.2
2019-01-10T02:21:16.064Z,90.4
2019-01-10T02:22:16.337Z,90.2
2019-01-10T02:23:16.875Z,90.3
2019-01-10T02:24:16.138Z,90.1
2019-01-10T02:25:16.407Z,89.8
2019-01-10T02:26:16.672Z,90.2
2019-01-10T02:27:15.931Z,90.2
2019-01-10T02:28:16.197Z,90.3
2019-01-10T02:29:16.457Z,89.9
2019-01-10T02:30:15.726Z,90.0
2019-01-10T02:31:15.801Z,90.0
2019-01-10T02:32:16.067Z,90.3
2019-01-10T02:33:16.336Z,90.2
2019-01-10T02:34:16.943Z,90.2
2019-01-10T02:35:16.244Z,90.1
2019-01-10T02:36:16.526Z,89.7
2019-01-10T02:37:15.794Z,90.0
2019-01-10T02:38:16.065Z,90.3
2019-01-10T02:39:16.327Z,89.9
2019-01-10T02:40:16.607Z,90.0
2019-01-10T02:41:16.665Z,90.2
2019-01-10T02:42:15.933Z,90.0
2019-01-10T02:43:26.107Z,90.0
2019-01-10T02:44:16.578Z,90.1
2019-01-10T02:45:15.854Z,90.0
2019-01-10T02:46:16.130Z,90.3
2019-01-10T02:47:16.396Z,90.4
2019-01-10T02:48:19.840Z,90.2
2019-01-10T02:49:16.151Z,90.2
2019-01-10T02:50:16.509Z,90.3
2019-01-10T02:51:16.492Z,90.8
2019-01-10T02:52:15.761Z,90.5
2019-01-10T02:53:16.039Z,90.2
2019-01-10T02:54:16.296Z,90.2
2019-01-10T02:55:16.559Z,90.4
2019-01-10T02:56:15.825Z,90.5
2019-01-10T02:57:16.091Z,90.2
2019-01-10T02:58:16.375Z,90.2
2019-01-10T02:59:16.926Z,90.2
2019-01-10T03:00:16.228Z,90.5
2019-01-10T03:01:16.420Z,90.2
2019-01-10T03:02:16.684Z,90.2
2019-01-10T03:03:16.624Z,90.5
2019-01-10T03:04:15.915Z,90.2
2019-01-10T03:05:16.198Z,90.2
2019-01-10T03:06:16.457Z,90.5
2019-01-10T03:07:15.720Z,90.5
2019-01-10T03:08:15.981Z,90.8
2019-01-10T03:09:16.552Z,90.5
2019-01-10T03:10:15.822Z,90.3
2019-01-10T03:11:15.872Z,90.3
2019-01-10T03:12:16.147Z,90.7
2019-01-10T03:13:16.420Z,90.8
2019-01-10T03:14:16.698Z,90.8
2019-01-10T03:15:15.957Z,90.6
2019-01-10T03:16:16.227Z,90.8
2019-01-10T03:17:16.499Z,90.7
2019-01-10T03:18:15.781Z,90.7
2019-01-10T03:19:16.053Z,90.8
2019-01-10T03:20:16.367Z,91.0
2019-01-10T03:21:16.373Z,91.2
2019-01-10T03:22:16.658Z,91.2
2019-01-10T03:23:15.922Z,91.3
2019-01-10T03:24:16.182Z,91.0
2019-01-10T03:25:16.824Z,90.8
2019-01-10T03:26:16.210Z,91.2
2019-01-10T03:27:16.479Z,91.2
2019-01-10T03:28:15.747Z,90.8
2019-01-10T03:29:16.030Z,90.8
2019-01-10T03:30:16.413Z,90.9
2019-01-10T03:31:16.373Z,90.8
2019-01-10T03:32:16.649Z,90.9
2019-01-10T03:33:15.959Z,90.9
2019-01-10T03:34:16.237Z,90.8
2019-01-10T03:35:16.533Z,90.7
2019-01-10T03:36:15.800Z,90.7
2019-01-10T03:37:16.063Z,90.8
2019-01-10T03:38:16.332Z,91.0
2019-01-10T03:39:16.599Z,91.0
2019-01-10T03:40:15.881Z,90.8
2019-01-10T03:41:15.913Z,91.3
2019-01-10T03:42:16.185Z,90.8
2019-01-10T03:43:16.467Z,90.8
2019-01-10T03:44:15.749Z,90.7
2019-01-10T03:45:16.037Z,90.8
2019-01-10T03:46:16.318Z,91.0
2019-01-10T03:47:16.578Z,91.0
2019-01-10T03:48:15.836Z,90.8
2019-01-10T03:49:16.108Z,90.8
2019-01-10T03:50:16.388Z,90.8
2019-01-10T03:51:16.430Z,91.0
2019-01-10T03:52:16.698Z,91.1
2019-01-10T03:53:15.971Z,90.9
2019-01-10T03:54:16.240Z,91.0
2019-01-10T03:55:16.544Z,91.1
2019-01-10T03:56:15.805Z,91.2
2019-01-10T03:57:16.070Z,90.8
2019-01-10T03:58:16.333Z,90.9
2019-01-10T03:59:16.604Z,90.9
2019-01-10T04:00:15.909Z,90.9
2019-01-10T04:01:16.021Z,91.0
2019-01-10T04:02:16.302Z,91.0
2019-01-10T04:03:16.549Z,91.1
2019-01-10T04:04:15.867Z,91.2
2019-01-10T04:05:16.168Z,91.0
2019-01-10T04:06:16.853Z,90.9
2019-01-10T04:07:16.124Z,91.0
2019-01-10T04:08:16.404Z,91.2
2019-01-10T04:09:16.742Z,91.1
2019-01-10T04:10:16.029Z,91.2
2019-01-10T04:11:16.079Z,91.2
2019-01-10T04:12:16.357Z,91.2
2019-01-10T04:13:16.628Z,91.4
2019-01-10T04:14:15.896Z,91.6
2019-01-10T04:15:16.248Z,91.7
2019-01-10T04:16:16.528Z,91.5
2019-01-10T04:17:15.811Z,91.3
2019-01-10T04:18:16.083Z,91.6
2019-01-10T04:19:16.354Z,91.3
2019-01-10T04:20:16.635Z,91.7
2019-01-10T04:21:17.791Z,91.3
2019-01-10T04:22:16.063Z,91.4
2019-01-10T04:23:16.330Z,91.7
2019-01-10T04:24:16.610Z,91.4
2019-01-10T04:25:15.868Z,91.6
2019-01-10T04:26:16.144Z,91.7
2019-01-10T04:27:16.433Z,91.8
2019-01-10T04:28:15.696Z,91.4
2019-01-10T04:29:15.962Z,91.4
2019-01-10T04:30:16.305Z,91.5
2019-01-10T04:31:16.298Z,91.6
2019-01-10T04:32:16.584Z,91.8
2019-01-10T04:33:15.852Z,92.0
2019-01-10T04:34:16.144Z,91.8
2019-01-10T04:35:16.408Z,91.8
2019-01-10T04:36:16.701Z,92.2
2019-01-10T04:37:15.960Z,91.9
2019-01-10T04:38:16.226Z,92.0
2019-01-10T04:39:16.498Z,91.9
2019-01-10T04:40:15.775Z,91.8
2019-01-10T04:41:15.815Z,91.7
2019-01-10T04:42:16.079Z,91.8
2019-01-10T04:43:16.352Z,91.7
2019-01-10T04:44:16.635Z,92.0
2019-01-10T04:45:15.900Z,92.1
2019-01-10T04:46:16.159Z,91.9
2019-01-10T04:47:16.458Z,92.3
2019-01-10T04:48:15.727Z,92.0
2019-01-10T04:49:16.015Z,92.0
2019-01-10T04:50:16.309Z,92.0
2019-01-10T04:51:16.342Z,92.0
2019-01-10T04:52:16.610Z,92.0
2019-01-10T04:53:15.896Z,92.1
2019-01-10T04:54:16.152Z,91.8
2019-01-10T04:55:16.411Z,91.8
2019-01-10T04:56:16.679Z,92.0
2019-01-10T04:57:15.955Z,92.2
2019-01-10T04:58:16.253Z,91.9
2019-01-10T04:59:16.514Z,91.8
2019-01-10T05:00:15.798Z,91.9
2019-01-10T05:01:15.842Z,92.1
2019-01-10T05:02:18.810Z,92.2
2019-01-10T05:03:16.166Z,92.2
2019-01-10T05:04:16.427Z,92.3
2019-01-10T05:05:16.709Z,92.5
2019-01-10T05:06:15.980Z,92.1
2019-01-10T05:07:16.260Z,92.2
2019-01-10T05:08:16.546Z,92.1
2019-01-10T05:09:16.088Z,92.0
2019-01-10T05:10:16.383Z,92.2
2019-01-10T05:11:16.393Z,92.3
2019-01-10T05:12:16.657Z,92.8
2019-01-10T05:13:15.936Z,92.8
2019-01-10T05:14:17.060Z,92.2
2019-01-10T05:15:16.333Z,92.2
2019-01-10T05:16:16.592Z,92.3
2019-01-10T05:17:15.873Z,92.0
2019-01-10T05:18:16.137Z,92.2
2019-01-10T05:19:16.394Z,92.3
2019-01-10T05:20:16.684Z,92.3
2019-01-10T05:21:15.709Z,92.2
2019-01-10T05:22:15.989Z,91.9
2019-01-10T05:23:16.268Z,92.2
2019-01-10T05:24:16.557Z,92.0
2019-01-10T05:25:15.841Z,91.8
2019-01-10T05:26:16.118Z,91.8
2019-01-10T05:27:16.395Z,92.2
2019-01-10T05:28:16.661Z,91.8
2019-01-10T05:29:15.941Z,91.8
2019-01-10T05:30:16.216Z,92.1
2019-01-10T05:31:16.257Z,92.3
2019-01-10T05:32:16.513Z,92.2
2019-01-10T05:33:15.779Z,92.2
2019-01-10T05:34:16.039Z,92.3
2019-01-10T05:35:16.341Z,92.3
2019-01-10T05:36:16.623Z,92.1
2019-01-10T05:37:15.888Z,92.0
2019-01-10T05:38:16.148Z,92.5
2019-01-10T05:39:16.837Z,92.2
2019-01-10T05:40:16.128Z,91.9
2019-01-10T05:41:16.156Z,91.7
2019-01-10T05:42:16.427Z,91.8
2019-01-10T05:43:16.698Z,92.0
2019-01-10T05:44:15.965Z,91.9
2019-01-10T05:45:16.253Z,91.8
2019-01-10T05:46:16.524Z,91.8
2019-01-10T05:47:15.787Z,91.5
2019-01-10T05:48:16.052Z,91.5
2019-01-10T05:49:16.329Z,91.7
2019-01-10T05:50:18.353Z,91.5
2019-01-10T05:51:16.671Z,91.7
2019-01-10T05:52:15.935Z,91.4
2019-01-10T05:53:16.196Z,91.5
2019-01-10T05:54:15.764Z,91.2
2019-01-10T05:55:16.149Z,91.6
2019-01-10T05:56:16.436Z,91.7
2019-01-10T05:57:15.701Z,91.7
2019-01-10T05:58:15.962Z,92.2
2019-01-10T05:59:16.224Z,92.3
2019-01-10T06:00:16.500Z,92.1
2019-01-10T06:01:16.550Z,91.6
2019-01-10T06:02:15.823Z,91.4
2019-01-10T06:03:16.081Z,91.1
2019-01-10T06:04:16.352Z,91.2
2019-01-10T06:05:16.620Z,91.2
2019-01-10T06:06:15.890Z,91.2
2019-01-10T06:07:16.159Z,91.2
2019-01-10T06:08:16.417Z,91.0
2019-01-10T06:09:17.026Z,91.2
2019-01-10T06:10:16.301Z,91.2
2019-01-10T06:11:16.349Z,91.0
2019-01-10T06:12:16.613Z,91.1
2019-01-10T06:13:15.874Z,91.0
2019-01-10T06:14:16.145Z,91.0
2019-01-10T06:15:16.418Z,91.1
2019-01-10T06:16:16.688Z,91.2
2019-01-10T06:17:15.952Z,91.5
2019-01-10T06:18:16.221Z,91.3
2019-01-10T06:19:16.486Z,91.2
2019-01-10T06:20:15.757Z,91.0
2019-01-10T06:21:15.993Z,91.1
2019-01-10T06:22:16.259Z,90.8
2019-01-10T06:23:18.156Z,91.0
2019-01-10T06:24:16.417Z,91.0
2019-01-10T06:25:16.692Z,91.5
2019-01-10T06:26:15.965Z,91.4
2019-01-10T06:27:16.241Z,91.2
2019-01-10T06:28:16.512Z,91.2
2019-01-10T06:29:15.809Z,91.2
2019-01-10T06:30:16.089Z,91.1
2019-01-10T06:31:16.124Z,91.2
2019-01-10T06:32:16.383Z,91.3
2019-01-10T06:33:16.644Z,91.0
2019-01-10T06:34:15.913Z,90.9
2019-01-10T06:35:16.211Z,91.0
2019-01-10T06:36:16.534Z,91.2
2019-01-10T06:37:15.790Z,91.2
2019-01-10T06:38:16.046Z,91.2
2019-01-10T06:39:19.878Z,91.0
2019-01-10T06:40:16.173Z,90.8
2019-01-10T06:41:17.121Z,91.0
2019-01-10T06:42:16.390Z,91.0
2019-01-10T06:43:16.655Z,91.0
2019-01-10T06:44:15.919Z,90.8
2019-01-10T06:45:16.202Z,90.8
2019-01-10T06:46:16.468Z,90.6
2019-01-10T06:47:15.730Z,90.6
2019-01-10T06:48:15.994Z,90.7
2019-01-10T06:49:16.266Z,90.5
2019-01-10T06:50:16.536Z,90.8
2019-01-10T06:51:16.612Z,90.5
2019-01-10T06:52:15.883Z,90.6
2019-01-10T06:53:16.147Z,90.6
2019-01-10T06:54:16.413Z,90.7
2019-01-10T06:55:16.663Z,90.7
2019-01-10T06:56:15.965Z,90.4
2019-01-10T06:57:16.220Z,90.2
2019-01-10T06:58:16.480Z,90.0
2019-01-10T06:59:15.737Z,90.2
2019-01-10T07:00:16.034Z,90.8
2019-01-10T07:01:16.330Z,90.5
2019-01-10T07:02:16.908Z,90.5
2019-01-10T07:03:16.183Z,90.8
2019-01-10T07:04:16.466Z,90.4
2019-01-10T07:05:15.742Z,90.4
2019-01-10T07:06:16.016Z,90.5
2019-01-10T07:07:16.278Z,90.5
2019-01-10T07:08:16.553Z,90.2
2019-01-10T07:09:15.819Z,90.0
2019-01-10T07:10:16.104Z,90.1
2019-01-10T07:11:16.130Z,90.1
2019-01-10T07:12:16.395Z,89.8
2019-01-10T07:13:16.661Z,89.7
2019-01-10T07:14:15.921Z,89.8
2019-01-10T07:15:16.194Z,90.1
2019-01-10T07:16:16.470Z,89.8
2019-01-10T07:17:16.125Z,89.8
2019-01-10T07:18:16.386Z,90.0
2019-01-10T07:19:16.649Z,90.2
2019-01-10T07:20:15.919Z,90.0
2019-01-10T07:21:15.987Z,89.5
2019-01-10T07:22:16.246Z,89.8
2019-01-10T07:23:16.517Z,89.4
2019-01-10T07:24:15.791Z,89.3
2019-01-10T07:25:16.073Z,89.6
2019-01-10T07:26:16.337Z,89.2
2019-01-10T07:27:16.595Z,89.2
2019-01-10T07:28:15.880Z,89.3
2019-01-10T07:29:16.150Z,89.2
2019-01-10T07:30:16.436Z,89.5
2019-01-10T07:31:16.482Z,89.8
2019-01-10T07:32:15.752Z,89.7
2019-01-10T07:33:16.018Z,89.5
2019-01-10T07:34:16.278Z,89.5
2019-01-10T07:35:16.547Z,89.2
2019-01-10T07:36:15.808Z,89.2
2019-01-10T07:37:16.075Z,89.2
2019-01-10T07:38:16.346Z,89.5
2019-01-10T07:39:16.615Z,89.4
2019-01-10T07:40:15.891Z,89.5
2019-01-10T07:41:15.941Z,89.5
2019-01-10T07:42:16.205Z,88.9
2019-01-10T07:43:16.465Z,88.8
2019-01-10T07:44:15.737Z,89.0
2019-01-10T07:45:16.006Z,89.1
2019-01-10T07:46:16.276Z,89.5
2019-01-10T07:47:16.560Z,89.5
2019-01-10T07:48:15.825Z,89.2
2019-01-10T07:49:16.091Z,89.3
2019-01-10T07:50:16.365Z,89.8
2019-01-10T07:51:16.550Z,90.1
2019-01-10T07:52:15.811Z,89.1
2019-01-10T07:53:16.080Z,89.1
2019-01-10T07:54:16.359Z,89.4
2019-01-10T07:55:16.618Z,89.0
2019-01-10T07:56:15.900Z,89.0
2019-01-10T07:57:16.168Z,89.2
2019-01-10T07:58:16.436Z,89.3
2019-01-10T07:59:15.690Z,89.2
2019-01-10T08:00:15.969Z,89.3
2019-01-10T08:01:16.029Z,89.4
2019-01-10T08:02:16.290Z,89.7
2019-01-10T08:03:16.801Z,89.7
2019-01-10T08:04:16.063Z,89.3
2019-01-10T08:05:16.359Z,89.3
2019-01-10T08:06:16.614Z,88.8
2019-01-10T08:07:15.877Z,89.0
2019-01-10T08:08:16.138Z,89.2
2019-01-10T08:09:16.412Z,89.0
2019-01-10T08:10:16.697Z,88.8
2019-01-10T08:11:15.719Z,88.9
2019-01-10T08:12:15.990Z,88.8
2019-01-10T08:13:16.257Z,89.2
2019-01-10T08:14:16.522Z,89.2
2019-01-10T08:15:15.787Z,89.0
2019-01-10T08:16:16.041Z,89.0
2019-01-10T08:17:16.482Z,88.7
2019-01-10T08:18:15.754Z,88.7
2019-01-10T08:19:16.032Z,89.2
2019-01-10T08:20:16.925Z,89.8
2019-01-10T08:21:16.366Z,89.0
2019-01-10T08:22:16.630Z,88.6
2019-01-10T08:23:15.897Z,88.6
2019-01-10T08:24:16.169Z,88.8
2019-01-10T08:25:16.437Z,88.7
2019-01-10T08:26:15.707Z,88.8
2019-01-10T08:27:15.969Z,88.8
2019-01-10T08:28:16.222Z,89.0
2019-01-10T08:29:16.474Z,88.8
2019-01-10T08:30:15.745Z,87.9
2019-01-10T08:31:15.806Z,88.2
2019-01-10T08:32:16.078Z,88.0
2019-01-10T08:33:16.346Z,88.3
2019-01-10T08:34:16.610Z,88.2
2019-01-10T08:35:15.878Z,88.1
2019-01-10T08:36:16.137Z,88.3
2019-01-10T08:37:16.400Z,88.5
2019-01-10T08:38:16.663Z,88.0
2019-01-10T08:39:15.931Z,88.6
2019-01-10T08:40:16.202Z,88.6
2019-01-10T08:41:16.256Z,88.2
2019-01-10T08:42:16.519Z,87.8
2019-01-10T08:43:15.792Z,87.7
2019-01-10T08:44:16.121Z,87.8
2019-01-10T08:45:22.209Z,88.0
2019-01-10T08:46:18.823Z,88.2
2019-01-10T08:47:16.209Z,88.0
2019-01-10T08:48:16.469Z,87.9
2019-01-10T08:49:15.733Z,87.9
2019-01-10T08:50:16.016Z,87.7
2019-01-10T08:51:16.054Z,87.7
2019-01-10T08:52:16.320Z,87.6
2019-01-10T08:53:16.588Z,88.0
2019-01-10T08:54:15.862Z,87.2
2019-01-10T08:55:16.127Z,87.4
2019-01-10T08:56:16.388Z,87.7
2019-01-10T08:57:16.725Z,87.5
2019-01-10T08:58:15.987Z,87.4
2019-01-10T08:59:16.256Z,87.7
2019-01-10T09:00:16.534Z,87.8
2019-01-10T09:01:16.576Z,87.7
2019-01-10T09:02:15.833Z,88.1
2019-01-10T09:03:16.100Z,87.5
2019-01-10T09:04:16.367Z,87.7
2019-01-10T09:05:16.641Z,87.4
2019-01-10T09:06:15.892Z,87.5
2019-01-10T09:07:16.173Z,87.7
2019-01-10T09:08:16.446Z,87.7
2019-01-10T09:09:15.710Z,87.7
2019-01-10T09:10:15.977Z,87.3
2019-01-10T09:11:16.040Z,87.4
2019-01-10T09:12:16.311Z,87.6
2019-01-10T09:13:16.567Z,87.5
2019-01-10T09:14:15.832Z,87.5
2019-01-10T09:15:29.120Z,87.7
2019-01-10T09:16:15.951Z,87.2
2019-01-10T09:17:16.207Z,87.4
2019-01-10T09:18:16.443Z,87.3
2019-01-10T09:19:15.712Z,87.0
2019-01-10T09:20:15.998Z,86.7
2019-01-10T09:21:16.036Z,87.0
2019-01-10T09:22:16.305Z,86.5
2019-01-10T09:23:16.585Z,86.1
2019-01-10T09:24:15.850Z,86.2
2019-01-10T09:25:18.015Z,86.2
2019-01-10T09:26:16.287Z,86.2
2019-01-10T09:27:16.554Z,85.4
2019-01-10T09:28:15.818Z,85.3
2019-01-10T09:29:16.080Z,85.7
2019-01-10T09:30:16.350Z,85.1
2019-01-10T09:31:16.407Z,85.2
2019-01-10T09:32:16.665Z,85.2
2019-01-10T09:33:15.930Z,84.8
2019-01-10T09:34:25.130Z,85.0
2019-01-10T09:35:16.453Z,85.0
2019-01-10T09:36:15.713Z,84.7
2019-01-10T09:37:16.006Z,84.8
2019-01-10T09:38:16.271Z,84.9
2019-01-10T09:39:16.550Z,85.2
2019-01-10T09:40:15.791Z,85.2
2019-01-10T09:41:15.872Z,84.6
2019-01-10T09:42:16.133Z,84.9
2019-01-10T09:43:16.402Z,84.8
2019-01-10T09:44:16.671Z,84.2
2019-01-10T09:45:15.937Z,84.5
2019-01-10T09:46:16.215Z,84.7
2019-01-10T09:47:16.481Z,85.0
2019-01-10T09:48:15.739Z,84.9
2019-01-10T09:49:16.008Z,85.0
2019-01-10T09:50:16.265Z,85.4
2019-01-10T09:51:16.338Z,85.4
2019-01-10T09:52:16.614Z,84.8
2019-01-10T09:53:15.872Z,84.9
2019-01-10T09:54:16.140Z,85.2
2019-01-10T09:55:16.618Z,85.2
2019-01-10T09:56:15.880Z,85.2
2019-01-10T09:57:16.164Z,85.4
2019-01-10T09:58:16.432Z,85.4
2019-01-10T09:59:15.688Z,84.8
2019-01-10T10:00:15.977Z,84.7
2019-01-10T10:01:16.028Z,84.9
2019-01-10T10:02:16.287Z,85.4
2019-01-10T10:03:16.545Z,85.5
2019-01-10T10:04:15.806Z,85.0
2019-01-10T10:05:16.075Z,85.6
2019-01-10T10:06:16.444Z,85.2
2019-01-10T10:07:15.763Z,85.2
2019-01-10T10:08:16.046Z,84.8
2019-01-10T10:09:16.311Z,86.0
2019-01-10T10:10:16.574Z,85.8
2019-01-10T10:11:16.639Z,85.1
2019-01-10T10:12:15.890Z,84.6
2019-01-10T10:13:16.147Z,84.9
2019-01-10T10:14:16.422Z,84.9
2019-01-10T10:15:16.704Z,84.9
2019-01-10T10:16:15.961Z,85.1
2019-01-10T10:17:16.217Z,84.9
2019-01-10T10:18:16.477Z,84.7
2019-01-10T10:19:15.746Z,84.5
2019-01-10T10:20:16.008Z,84.3
2019-01-10T10:21:16.081Z,84.5
2019-01-10T10:22:16.351Z,84.6
2019-01-10T10:23:16.609Z,84.6
2019-01-10T10:24:15.878Z,84.3
2019-01-10T10:25:16.136Z,84.2
2019-01-10T10:26:16.400Z,84.3
2019-01-10T10:27:16.675Z,83.8
2019-01-10T10:28:15.938Z,84.0
2019-01-10T10:29:16.219Z,84.2
2019-01-10T10:30:16.489Z,84.2
2019-01-10T10:31:16.512Z,84.7
2019-01-10T10:32:15.788Z,84.2
2019-01-10T10:33:16.053Z,85.0
2019-01-10T10:34:16.318Z,84.8
2019-01-10T10:35:16.614Z,84.8
2019-01-10T10:36:15.871Z,84.8
2019-01-10T10:37:16.134Z,85.1
2019-01-10T10:38:16.390Z,85.5
2019-01-10T10:39:16.724Z,86.0
2019-01-10T10:40:16.016Z,86.1
2019-01-10T10:41:16.072Z,86.7
2019-01-10T10:42:16.326Z,86.8
2019-01-10T10:43:16.583Z,87.2
2019-01-10T10:44:15.841Z,87.2
2019-01-10T10:45:16.110Z,87.4
2019-01-10T10:46:16.374Z,87.8
2019-01-10T10:47:16.638Z,87.3
2019-01-10T10:48:15.912Z,87.7
2019-01-10T10:49:16.181Z,87.8
2019-01-10T10:50:16.451Z,87.9
2019-01-10T10:51:16.490Z,88.1
2019-01-10T10:52:15.763Z,88.1
2019-01-10T10:53:16.060Z,88.1
2019-01-10T10:54:16.325Z,88.3
2019-01-10T10:55:16.592Z,88.3
2019-01-10T10:56:15.856Z,88.4
2019-01-10T10:57:16.117Z,88.5
2019-01-10T10:58:16.385Z,88.8
2019-01-10T10:59:16.649Z,88.8
2019-01-10T11:00:15.921Z,89.0
2019-01-10T11:01:15.985Z,88.5
2019-01-10T11:02:16.251Z,88.2
2019-01-10T11:03:16.526Z,88.7
2019-01-10T11:04:15.804Z,88.2
2019-01-10T11:05:16.067Z,88.0
2019-01-10T11:06:16.340Z,87.9
2019-01-10T11:07:16.601Z,88.2
2019-01-10T11:08:15.858Z,87.7
2019-01-10T11:09:16.127Z,87.8
2019-01-10T11:10:16.453Z,87.5
2019-01-10T11:11:16.447Z,87.0
2019-01-10T11:12:15.713Z,86.8
2019-01-10T11:13:15.993Z,88.2
2019-01-10T11:14:16.276Z,87.8
2019-01-10T11:15:16.554Z,86.8
2019-01-10T11:16:15.819Z,86.5
2019-01-10T11:17:16.082Z,86.7
2019-01-10T11:18:16.350Z,86.3
2019-01-10T11:19:16.614Z,86.2
2019-01-10T11:20:15.891Z,86.3
2019-01-10T11:21:15.938Z,86.2
2019-01-10T11:22:16.213Z,86.2
2019-01-10T11:23:16.478Z,86.5
2019-01-10T11:24:15.744Z,86.1
2019-01-10T11:25:16.019Z,85.5
2019-01-10T11:26:16.266Z,86.0
2019-01-10T11:27:16.537Z,85.2
2019-01-10T11:28:15.796Z,86.4
2019-01-10T11:29:16.056Z,85.9
2019-01-10T11:30:16.336Z,85.6
2019-01-10T11:31:16.387Z,86.5
2019-01-10T11:32:16.648Z,86.3
2019-01-10T11:33:15.914Z,85.2
2019-01-10T11:34:16.189Z,84.8
2019-01-10T11:35:16.449Z,85.8
2019-01-10T11:36:15.718Z,85.7
2019-01-10T11:37:15.988Z,84.9
2019-01-10T11:38:16.250Z,84.6
2019-01-10T11:39:16.527Z,84.4
2019-01-10T11:40:15.795Z,85.4
2019-01-10T11:41:15.844Z,85.6
2019-01-10T11:42:16.112Z,84.4
2019-01-10T11:43:16.375Z,84.7
2019-01-10T11:44:16.636Z,84.5
2019-01-10T11:45:15.917Z,84.3
2019-01-10T11:46:20.068Z,84.9
2019-01-10T11:47:16.358Z,84.5
2019-01-10T11:48:16.627Z,84.8
2019-01-10T11:49:15.886Z,84.5
2019-01-10T11:50:16.194Z,85.0
2019-01-10T11:51:16.211Z,85.3
2019-01-10T11:52:16.481Z,86.1
2019-01-10T11:53:15.735Z,86.0
2019-01-10T11:54:16.000Z,86.0
2019-01-10T11:55:16.277Z,86.2
2019-01-10T11:56:16.542Z,86.1
2019-01-10T11:57:15.802Z,86.5
2019-01-10T11:58:16.082Z,87.1
2019-01-10T11:59:16.348Z,87.1
2019-01-10T12:00:16.922Z,87.4
2019-01-10T12:01:16.672Z,87.6
2019-01-10T12:02:15.941Z,87.9
2019-01-10T12:03:16.214Z,87.5
2019-01-10T12:04:16.480Z,88.1
2019-01-10T12:05:15.747Z,88.2
2019-01-10T12:06:16.011Z,88.0
2019-01-10T12:07:16.270Z,88.2
2019-01-10T12:08:16.546Z,89.0
2019-01-10T12:09:15.822Z,89.2
2019-01-10T12:10:16.111Z,88.8
2019-01-10T12:11:16.147Z,88.7
2019-01-10T12:12:16.421Z,89.1
2019-01-10T12:13:16.694Z,89.2
2019-01-10T12:14:15.953Z,89.7
2019-01-10T12:15:16.227Z,89.7
2019-01-10T12:16:16.481Z,89.7
2019-01-10T12:17:15.744Z,89.7
2019-01-10T12:18:15.995Z,90.1
2019-01-10T12:19:16.261Z,90.8
2019-01-10T12:20:16.549Z,90.3
2019-01-10T12:21:16.607Z,91.1
2019-01-10T12:22:15.875Z,91.2
2019-01-10T12:23:17.010Z,91.1
2019-01-10T12:24:16.274Z,91.4
2019-01-10T12:25:16.548Z,91.8
2019-01-10T12:26:15.819Z,92.0
2019-01-10T12:27:16.085Z,91.2
2019-01-10T12:28:16.352Z,91.3
2019-01-10T12:29:16.612Z,91.5
2019-01-10T12:30:15.893Z,91.3
2019-01-10T12:31:15.943Z,90.3
2019-01-10T12:32:16.205Z,90.4
2019-01-10T12:33:16.475Z,90.8
2019-01-10T12:34:15.755Z,90.9
2019-01-10T12:35:16.023Z,90.8
2019-01-10T12:36:16.296Z,90.8
2019-01-10T12:37:16.591Z,90.7
2019-01-10T12:38:15.859Z,90.8
2019-01-10T12:39:16.140Z,90.4
2019-01-10T12:40:16.418Z,90.5
2019-01-10T12:41:16.490Z,90.3
2019-01-10T12:42:15.762Z,90.6
2019-01-10T12:43:16.023Z,90.5
2019-01-10T12:44:16.291Z,90.3
2019-01-10T12:45:16.555Z,90.0
2019-01-10T12:46:15.822Z,90.2
2019-01-10T12:47:16.085Z,90.5
2019-01-10T12:48:16.349Z,90.8
2019-01-10T12:49:16.626Z,89.2
2019-01-10T12:50:15.900Z,88.6
2019-01-10T12:51:15.934Z,88.5
2019-01-10T12:52:16.199Z,87.6
2019-01-10T12:53:16.466Z,87.3
2019-01-10T12:54:15.731Z,87.6
2019-01-10T12:55:15.994Z,87.9
2019-01-10T12:56:18.675Z,87.8
2019-01-10T12:57:15.964Z,87.4
2019-01-10T12:58:16.228Z,87.8
2019-01-10T12:59:16.494Z,88.2
2019-01-10T13:00:15.776Z,88.0
2019-01-10T13:01:15.927Z,88.6
2019-01-10T13:02:16.198Z,87.9
2019-01-10T13:03:16.477Z,87.8
2019-01-10T13:04:15.739Z,88.0
2019-01-10T13:05:16.010Z,88.0
2019-01-10T13:06:16.276Z,88.8
2019-01-10T13:07:16.546Z,89.1
2019-01-10T13:08:15.800Z,89.0
2019-01-10T13:09:16.064Z,88.5
2019-01-10T13:10:16.360Z,88.6
2019-01-10T13:11:16.387Z,89.1
2019-01-10T13:12:16.650Z,88.7
2019-01-10T13:13:15.913Z,87.8
2019-01-10T13:14:16.175Z,87.6
2019-01-10T13:15:16.438Z,86.5
2019-01-10T13:16:15.713Z,86.3
2019-01-10T13:17:15.972Z,87.0
2019-01-10T13:18:16.240Z,86.9